createdAt,value
2019-02-25T00:02:01.742Z,23.90
2019-02-25T00:04:33.663Z,24.17
2019-02-25T00:07:05.925Z,24.00
2019-02-25T00:09:37.857Z,25.40
2019-02-25T00:12:09.780Z,24.13
2019-02-25T00:14:41.707Z,25.03
2019-02-25T00:17:13.637Z,23.77
2019-02-25T00:19:45.589Z,23.47
2019-02-25T00:22:17.516Z,24.23
2019-02-25T00:24:49.455Z,22.67
2019-02-25T00:27:21.365Z,22.40
2019-02-25T00:29:53.304Z,21.97
2019-02-25T00:32:25.238Z,22.53
2019-02-25T00:34:57.157Z,24.17
2019-02-25T00:37:29.108Z,23.40
2019-02-25T00:40:01.031Z,22.17
2019-02-25T00:42:32.956Z,22.27
2019-02-25T00:45:09.329Z,23.13
2019-02-25T00:47:41.287Z,23.27
2019-02-25T00:50:19.831Z,23.50
2019-02-25T00:52:51.818Z,23.60
2019-02-25T00:55:23.745Z,22.03
2019-02-25T00:57:55.682Z,22.90
2019-02-25T01:00:27.770Z,23.87
2019-02-25T01:02:59.699Z,22.43
2019-02-25T01:05:31.731Z,24.20
2019-02-25T01:08:04.417Z,22.70
2019-02-25T01:10:36.369Z,22.77
2019-02-25T01:13:10.312Z,24.90
2019-02-25T01:15:42.524Z,23.87
2019-02-25T01:18:14.451Z,23.60
2019-02-25T01:20:46.377Z,23.23
2019-02-25T01:23:18.784Z,23.77
2019-02-25T01:25:55.119Z,22.67
2019-02-25T01:28:27.069Z,22.50
2019-02-25T01:30:58.987Z,23.33
2019-02-25T01:33:31.009Z,22.70
2019-02-25T01:36:03.130Z,22.60
2019-02-25T01:38:35.220Z,23.00
2019-02-25T01:41:07.425Z,23.43
2019-02-25T01:43:39.379Z,21.30
2019-02-25T01:46:11.474Z,21.67
2019-02-25T01:48:43.990Z,22.20
2019-02-25T01:51:15.979Z,22.20
2019-02-25T01:53:48.098Z,22.17
2019-02-25T01:56:20.033Z,21.63
2019-02-25T01:58:57.798Z,23.60
2019-02-25T02:01:29.727Z,22.90
2019-02-25T02:04:01.671Z,22.40
2019-02-25T02:06:33.601Z,21.47
2019-02-25T02:09:08.530Z,22.43
2019-02-25T02:11:40.458Z,22.97
2019-02-25T02:14:12.391Z,21.53
2019-02-25T02:16:44.746Z,22.23
2019-02-25T02:19:16.676Z,25.20
2019-02-25T02:21:48.702Z,24.70
2019-02-25T02:24:20.657Z,27.40
2019-02-25T02:26:52.589Z,26.93
2019-02-25T02:29:24.521Z,25.07
2019-02-25T02:31:56.439Z,25.90
2019-02-25T02:34:28.374Z,25.30
2019-02-25T02:37:00.298Z,26.67
2019-02-25T02:39:32.258Z,27.50
2019-02-25T02:42:16.145Z,27.40
2019-02-25T02:44:53.546Z,28.80
2019-02-25T02:47:33.774Z,28.87
2019-02-25T02:50:19.305Z,27.50
2019-02-25T02:52:51.560Z,28.93
2019-02-25T02:55:23.588Z,28.53
2019-02-25T02:57:55.517Z,30.03
2019-02-25T03:00:27.439Z,30.30
2019-02-25T03:02:59.354Z,30.80
2019-02-25T03:05:31.287Z,31.37
2019-02-25T03:08:04.932Z,31.10
2019-02-25T03:10:36.937Z,32.60
2019-02-25T03:13:08.869Z,34.83
2019-02-25T03:15:42.499Z,31.90
2019-02-25T03:18:14.459Z,33.63
2019-02-25T03:20:46.380Z,34.50
2019-02-25T03:23:18.312Z,35.57
2019-02-25T03:25:50.235Z,35.97
2019-02-25T03:28:22.179Z,35.87
2019-02-25T03:30:54.105Z,35.17
2019-02-25T03:33:26.464Z,36.53
2019-02-25T03:35:58.390Z,35.37
2019-02-25T03:38:30.600Z,36.73
2019-02-25T03:41:02.534Z,34.20
2019-02-25T03:43:34.455Z,33.87
2019-02-25T03:46:06.394Z,34.07
2019-02-25T03:48:38.313Z,37.07
2019-02-25T03:51:12.051Z,35.80
2019-02-25T03:53:43.951Z,35.77
2019-02-25T03:56:16.182Z,35.40
2019-02-25T03:58:48.174Z,36.93
2019-02-25T04:01:20.104Z,36.97
2019-02-25T04:03:52.037Z,36.80
2019-02-25T04:06:25.632Z,35.60
2019-02-25T04:08:57.621Z,36.67
2019-02-25T04:11:29.545Z,37.33
2019-02-25T04:14:01.474Z,38.10
2019-02-25T04:16:33.756Z,38.13
2019-02-25T04:19:05.684Z,36.57
2019-02-25T04:21:37.627Z,37.90
2019-02-25T04:24:09.561Z,36.67
2019-02-25T04:26:41.501Z,38.93
2019-02-25T04:29:13.436Z,38.70
2019-02-25T04:31:45.355Z,40.30
2019-02-25T04:34:17.429Z,38.43
2019-02-25T04:36:49.359Z,40.37
2019-02-25T04:39:21.284Z,38.17
2019-02-25T04:41:53.213Z,39.73
2019-02-25T04:44:25.138Z,38.90
2019-02-25T04:46:57.335Z,39.33
2019-02-25T04:49:29.348Z,41.43
2019-02-25T04:52:01.265Z,39.37
2019-02-25T04:54:33.216Z,40.80
2019-02-25T04:57:05.309Z,41.57
2019-02-25T04:59:38.800Z,40.23
2019-02-25T05:02:10.735Z,41.83
2019-02-25T05:04:42.688Z,41.47
2019-02-25T05:07:14.881Z,40.67
2019-02-25T05:09:46.864Z,40.20
2019-02-25T05:12:19.187Z,41.27
2019-02-25T05:14:51.371Z,40.97
2019-02-25T05:17:23.317Z,40.10
2019-02-25T05:19:55.701Z,41.70
2019-02-25T05:22:27.655Z,42.60
2019-02-25T05:24:59.586Z,44.57
2019-02-25T05:27:31.573Z,43.30
2019-02-25T05:30:05.951Z,45.43
2019-02-25T05:32:38.136Z,43.83
2019-02-25T05:35:12.653Z,44.70
2019-02-25T05:37:45.280Z,44.93
2019-02-25T05:40:19.053Z,42.57
2019-02-25T05:42:51.033Z,42.63
2019-02-25T05:45:23.031Z,43.40
2019-02-25T05:47:55.328Z,43.13
2019-02-25T05:50:27.315Z,42.97
2019-02-25T05:52:59.256Z,43.03
2019-02-25T05:55:31.558Z,43.97
2019-02-25T05:58:03.511Z,45.07
2019-02-25T06:00:36.507Z,44.47
2019-02-25T06:03:08.819Z,43.23
2019-02-25T06:05:40.743Z,43.50
2019-02-25T06:08:12.865Z,45.93
2019-02-25T06:10:44.788Z,45.13
2019-02-25T06:13:16.743Z,45.90
2019-02-25T06:15:51.298Z,45.20
2019-02-25T06:18:22.982Z,45.17
2019-02-25T06:20:54.906Z,47.50
2019-02-25T06:23:26.908Z,46.83
2019-02-25T06:25:58.854Z,45.63
2019-02-25T06:28:31.157Z,44.33
2019-02-25T06:31:03.116Z,45.30
2019-02-25T06:33:35.074Z,45.23
2019-02-25T06:36:07.010Z,47.37
2019-02-25T06:38:38.949Z,45.90
2019-02-25T06:41:10.931Z,46.80
2019-02-25T06:43:42.938Z,47.73
2019-02-25T06:46:14.938Z,46.50
2019-02-25T06:48:46.867Z,47.67
2019-02-25T06:51:18.794Z,46.47
2019-02-25T06:53:50.735Z,47.70
2019-02-25T06:56:22.660Z,45.93
2019-02-25T06:58:54.607Z,47.57
2019-02-25T07:01:26.534Z,46.83
2019-02-25T07:04:18.336Z,46.83
2019-02-25T07:06:51.902Z,46.47
2019-02-25T07:09:31.253Z,49.43
2019-02-25T07:12:08.079Z,45.87
2019-02-25T07:14:44.649Z,46.90
2019-02-25T07:17:23.901Z,48.57
2019-02-25T07:20:06.407Z,48.00
2019-02-25T07:22:45.744Z,47.37
2019-02-25T07:25:22.269Z,49.17
2019-02-25T07:28:11.847Z,49.23
2019-02-25T07:30:51.371Z,49.17
2019-02-25T07:33:44.942Z,48.27
2019-02-25T07:36:27.411Z,47.63
2019-02-25T07:39:00.989Z,50.37
2019-02-25T07:41:38.221Z,49.23
2019-02-25T07:44:11.891Z,48.87
2019-02-25T07:46:45.777Z,49.57
2019-02-25T07:49:22.973Z,47.70
2019-02-25T07:51:56.558Z,48.73
2019-02-25T07:54:42.342Z,47.27
2019-02-25T07:57:16.301Z,49.10
2019-02-25T07:59:55.799Z,50.17
2019-02-25T08:02:32.706Z,47.37
2019-02-25T08:05:07.214Z,47.97
2019-02-25T08:07:44.143Z,46.60
2019-02-25T08:10:20.406Z,48.13
2019-02-25T08:12:57.149Z,47.33
2019-02-25T08:15:33.378Z,50.10
2019-02-25T08:18:07.017Z,47.93
2019-02-25T08:20:46.771Z,48.43
2019-02-25T08:23:38.701Z,47.03
2019-02-25T08:26:15.214Z,48.10
2019-02-25T08:28:51.434Z,46.83
2019-02-25T08:31:41.208Z,49.17
2019-02-25T08:34:20.840Z,47.73
2019-02-25T08:37:19.532Z,46.73
2019-02-25T08:40:16.208Z,46.17
2019-02-25T08:42:48.329Z,45.23
2019-02-25T08:45:24.692Z,44.80
2019-02-25T08:48:04.400Z,45.17
2019-02-25T08:50:36.343Z,43.77
2019-02-25T08:53:08.275Z,40.77
2019-02-25T08:55:40.595Z,41.53
2019-02-25T08:58:12.539Z,40.73
2019-02-25T09:00:44.905Z,39.03
2019-02-25T09:03:16.871Z,39.77
2019-02-25T09:05:48.800Z,39.97
2019-02-25T09:08:20.729Z,44.90
2019-02-25T09:10:52.850Z,44.33
2019-02-25T09:13:24.777Z,47.10
2019-02-25T09:15:56.712Z,45.30
2019-02-25T09:18:28.973Z,45.00
2019-02-25T09:21:00.964Z,47.30
2019-02-25T09:23:33.025Z,46.07
2019-02-25T09:26:05.024Z,46.90
2019-02-25T09:28:36.971Z,44.57
2019-02-25T09:31:09.509Z,46.67
2019-02-25T09:33:41.732Z,44.80
2019-02-25T09:36:13.665Z,45.10
2019-02-25T09:38:45.614Z,42.70
2019-02-25T09:41:17.869Z,44.63
2019-02-25T09:43:49.800Z,41.33
2019-02-25T09:46:21.719Z,41.60
2019-02-25T09:48:53.695Z,40.17
2019-02-25T09:51:25.651Z,39.40
2019-02-25T09:53:57.576Z,37.60
2019-02-25T09:56:29.503Z,37.27
2019-02-25T09:59:01.439Z,37.53
2019-02-25T10:01:33.399Z,33.80
2019-02-25T10:04:05.339Z,35.63
2019-02-25T10:06:37.335Z,33.53
2019-02-25T10:09:09.267Z,33.47
2019-02-25T10:11:41.217Z,28.50
2019-02-25T10:14:13.144Z,28.63
2019-02-25T10:16:45.112Z,28.50
2019-02-25T10:19:17.021Z,27.33
2019-02-25T10:21:48.955Z,28.17
2019-02-25T10:24:20.893Z,28.87
2019-02-25T10:26:53.219Z,26.57
2019-02-25T10:29:25.174Z,23.43
2019-02-25T10:31:57.099Z,22.50
2019-02-25T10:34:29.060Z,23.03
2019-02-25T10:37:01.116Z,20.20
2019-02-25T10:39:33.048Z,21.53
2019-02-25T10:42:04.980Z,20.70
2019-02-25T10:44:38.253Z,23.57
2019-02-25T10:47:10.955Z,22.17
2019-02-25T10:49:44.171Z,22.07
2019-02-25T10:52:17.271Z,23.77
2019-02-25T10:54:51.516Z,22.17
2019-02-25T10:57:24.538Z,25.10
2019-02-25T10:59:57.487Z,26.03
2019-02-25T11:02:29.655Z,23.83
2019-02-25T11:05:01.597Z,23.53
2019-02-25T11:07:34.924Z,24.00
2019-02-25T11:10:11.993Z,24.10
2019-02-25T11:12:45.091Z,24.10
2019-02-25T11:15:17.099Z,22.50
2019-02-25T11:17:49.746Z,21.13
2019-02-25T11:20:22.705Z,20.83
2019-02-25T11:22:54.637Z,21.17
2019-02-25T11:25:28.493Z,22.93
2019-02-25T11:28:00.567Z,22.10
2019-02-25T11:30:32.582Z,21.10
2019-02-25T11:33:04.669Z,20.80
2019-02-25T11:35:38.791Z,19.53
2019-02-25T11:38:10.248Z,21.03
2019-02-25T11:40:42.492Z,21.33
2019-02-25T11:43:16.628Z,21.60
2019-02-25T11:45:48.667Z,22.63
2019-02-25T11:48:22.557Z,22.53
2019-02-25T11:50:54.239Z,19.60
2019-02-25T11:53:26.500Z,11.97
2019-02-25T11:56:00.866Z,12.77
2019-02-25T11:58:37.126Z,12.87
2019-02-25T12:01:09.207Z,13.50
2019-02-25T12:03:41.481Z,9.27
2019-02-25T12:06:13.668Z,10.27
2019-02-25T12:08:45.762Z,8.70
2019-02-25T12:11:17.768Z,10.57
2019-02-25T12:13:49.728Z,10.17
2019-02-25T12:16:21.803Z,11.57
2019-02-25T12:18:53.825Z,12.03
2019-02-25T12:21:26.199Z,12.10
2019-02-25T12:23:58.148Z,13.30
2019-02-25T12:26:30.230Z,12.00
2019-02-25T12:29:10.575Z,15.83
2019-02-25T12:31:35.788Z,15.60
2019-02-25T12:34:07.728Z,14.90
2019-02-25T12:36:39.666Z,15.33
2019-02-25T12:39:11.597Z,15.93
2019-02-25T12:41:43.580Z,14.70
2019-02-25T12:44:15.518Z,16.47
2019-02-25T12:46:48.377Z,16.30
2019-02-25T12:49:20.347Z,16.43
2019-02-25T12:51:52.285Z,12.93
2019-02-25T12:54:24.220Z,11.17
2019-02-25T12:56:56.158Z,14.03
2019-02-25T12:59:28.127Z,12.27
2019-02-25T13:02:00.084Z,13.37
2019-02-25T13:04:32.119Z,14.50
2019-02-25T13:07:04.336Z,14.17
2019-02-25T13:09:36.306Z,13.93
2019-02-25T13:12:08.533Z,13.53
2019-02-25T13:14:40.647Z,13.40
2019-02-25T13:17:12.584Z,13.67
2019-02-25T13:19:44.647Z,16.23
2019-02-25T13:22:16.599Z,16.90
2019-02-25T13:24:49.007Z,17.50
2019-02-25T13:27:21.075Z,17.70
2019-02-25T13:29:53.923Z,17.73
2019-02-25T13:32:26.218Z,16.67
2019-02-25T13:34:58.163Z,19.00
2019-02-25T13:37:30.871Z,18.77
2019-02-25T13:40:03.025Z,17.83
2019-02-25T13:42:34.948Z,18.17
2019-02-25T13:45:14.614Z,18.23
2019-02-25T13:47:46.650Z,19.80
2019-02-25T13:50:19.742Z,19.00
2019-02-25T13:52:51.683Z,17.73
2019-02-25T13:55:23.876Z,19.00
2019-02-25T13:57:57.638Z,18.10
2019-02-25T14:00:29.849Z,19.63
2019-02-25T14:03:03.346Z,24.30
2019-02-25T14:05:36.874Z,28.90
2019-02-25T14:08:08.891Z,28.83
2019-02-25T14:10:41.122Z,32.00
2019-02-25T14:13:13.189Z,35.30
2019-02-25T14:15:45.448Z,36.70
2019-02-25T14:18:18.104Z,38.63
2019-02-25T14:20:50.095Z,40.97
2019-02-25T14:23:22.441Z,40.90
2019-02-25T14:25:54.585Z,42.37
2019-02-25T14:28:26.629Z,45.43
2019-02-25T14:30:59.304Z,48.63
2019-02-25T14:33:35.635Z,51.93
2019-02-25T14:36:05.040Z,52.13
2019-02-25T14:38:37.299Z,54.77
2019-02-25T14:41:11.714Z,56.03
2019-02-25T14:43:47.043Z,55.87
2019-02-25T14:46:21.439Z,53.13
2019-02-25T14:48:51.111Z,57.57
2019-02-25T14:51:23.053Z,58.20
2019-02-25T14:53:55.048Z,59.07
2019-02-25T14:56:27.133Z,55.27
2019-02-25T14:59:00.622Z,54.97
2019-02-25T15:01:32.839Z,58.10
2019-02-25T15:04:06.479Z,55.23
2019-02-25T15:06:38.700Z,57.37
2019-02-25T15:09:12.506Z,55.23
2019-02-25T15:11:44.801Z,53.30
2019-02-25T15:14:17.082Z,56.67
2019-02-25T15:16:50.100Z,55.50
2019-02-25T15:19:22.925Z,57.67
2019-02-25T15:21:56.445Z,56.43
2019-02-25T15:24:29.165Z,56.23
2019-02-25T15:27:02.391Z,54.43
2019-02-25T15:29:37.042Z,56.70
2019-02-25T15:32:09.152Z,55.77
2019-02-25T15:34:41.169Z,55.83
2019-02-25T15:37:13.971Z,56.20
2019-02-25T15:39:46.553Z,55.97
2019-02-25T15:42:19.138Z,56.73
2019-02-25T15:44:51.785Z,61.10
2019-02-25T15:47:24.813Z,60.40
2019-02-25T15:49:59.769Z,62.50
2019-02-25T15:52:39.679Z,61.73
2019-02-25T15:55:08.809Z,62.00
2019-02-25T15:57:40.764Z,65.37
2019-02-25T16:00:23.235Z,64.77
2019-02-25T16:02:56.993Z,63.70
2019-02-25T16:05:31.979Z,64.63
2019-02-25T16:08:05.358Z,66.57
2019-02-25T16:10:37.379Z,63.60
2019-02-25T16:13:13.978Z,65.37
2019-02-25T16:15:43.433Z,65.60
2019-02-25T16:18:15.448Z,66.60
2019-02-25T16:20:47.514Z,64.67
2019-02-25T16:23:20.143Z,68.03
2019-02-25T16:25:53.204Z,65.53
2019-02-25T16:28:26.170Z,65.83
2019-02-25T16:30:58.133Z,67.17
2019-02-25T16:33:30.795Z,65.17
2019-02-25T16:36:05.626Z,66.30
2019-02-25T16:38:37.497Z,64.47
2019-02-25T16:41:10.262Z,63.93
2019-02-25T16:43:42.416Z,62.53
2019-02-25T16:46:16.221Z,61.33
2019-02-25T16:48:50.617Z,62.23
2019-02-25T16:51:23.575Z,60.60
2019-02-25T16:53:55.814Z,62.00
2019-02-25T16:56:27.821Z,58.90
2019-02-25T16:59:00.231Z,62.50
2019-02-25T17:01:34.406Z,59.93
2019-02-25T17:04:05.950Z,59.80
2019-02-25T17:06:39.470Z,58.87
2019-02-25T17:09:18.228Z,60.70
2019-02-25T17:11:51.241Z,66.97
2019-02-25T17:14:23.983Z,59.30
2019-02-25T17:16:57.420Z,59.70
2019-02-25T17:19:29.824Z,57.57
2019-02-25T17:22:02.437Z,56.47
2019-02-25T17:24:37.061Z,57.27
2019-02-25T17:27:11.818Z,56.37
2019-02-25T17:29:43.756Z,54.10
2019-02-25T17:32:16.678Z,54.27
2019-02-25T17:34:49.340Z,53.07
2019-02-25T17:37:21.297Z,51.60
2019-02-25T17:39:54.434Z,53.67
2019-02-25T17:42:28.580Z,51.43
2019-02-25T17:45:02.534Z,55.63
2019-02-25T17:47:35.181Z,54.20
2019-02-25T17:50:14.998Z,54.90
2019-02-25T17:52:47.081Z,53.83
2019-02-25T17:55:22.194Z,53.17
2019-02-25T17:57:55.953Z,51.60
2019-02-25T18:00:38.830Z,52.33
2019-02-25T18:03:09.885Z,50.53
2019-02-25T18:05:43.205Z,52.90
2019-02-25T18:08:15.562Z,51.17
2019-02-25T18:10:54.049Z,53.33
2019-02-25T18:13:26.394Z,53.63
2019-02-25T18:15:59.699Z,51.20
2019-02-25T18:18:31.629Z,54.57
2019-02-25T18:21:03.922Z,52.07
2019-02-25T18:23:36.332Z,51.37
2019-02-25T18:26:09.205Z,52.90
2019-02-25T18:28:41.726Z,50.20
2019-02-25T18:31:14.792Z,51.03
2019-02-25T18:33:48.448Z,50.47
2019-02-25T18:36:21.918Z,52.40
2019-02-25T18:38:54.847Z,52.97
2019-02-25T18:41:28.118Z,53.47
2019-02-25T18:44:00.796Z,53.53
2019-02-25T18:46:33.079Z,53.27
2019-02-25T18:49:07.274Z,53.37
2019-02-25T18:51:39.516Z,51.37
2019-02-25T18:54:11.596Z,54.70
2019-02-25T18:56:44.634Z,56.00
2019-02-25T18:59:17.948Z,53.67
2019-02-25T19:01:51.972Z,74.60
2019-02-25T19:04:24.125Z,80.00
2019-02-25T19:06:57.655Z,58.87
2019-02-25T19:09:29.787Z,53.40
2019-02-25T19:12:02.058Z,55.03
2019-02-25T19:14:34.419Z,55.23
2019-02-25T19:17:06.931Z,56.00
2019-02-25T19:19:41.215Z,57.57
2019-02-25T19:22:15.815Z,58.73
2019-02-25T19:24:54.617Z,56.57
2019-02-25T19:27:27.781Z,59.20
2019-02-25T19:30:02.807Z,62.90
2019-02-25T19:32:35.921Z,60.43
2019-02-25T19:35:10.882Z,57.97
2019-02-25T19:37:44.508Z,58.50
2019-02-25T19:40:24.434Z,59.60
2019-02-25T19:42:57.642Z,58.30
2019-02-25T19:45:30.368Z,56.03
2019-02-25T19:48:04.666Z,61.17
2019-02-25T19:50:38.554Z,58.50
2019-02-25T19:53:12.518Z,57.97
2019-02-25T19:55:46.181Z,55.60
2019-02-25T19:58:18.044Z,57.97
2019-02-25T20:00:52.915Z,57.53
2019-02-25T20:03:23.614Z,57.87
2019-02-25T20:05:56.394Z,59.43
2019-02-25T20:08:28.484Z,60.63
2019-02-25T20:11:00.722Z,59.47
2019-02-25T20:13:32.661Z,56.20
2019-02-25T20:16:07.812Z,59.10
2019-02-25T20:18:40.322Z,59.37
2019-02-25T20:21:13.232Z,59.70
2019-02-25T20:23:47.050Z,60.23
2019-02-25T20:26:20.046Z,60.43
2019-02-25T20:28:52.441Z,56.80
2019-02-25T20:31:24.399Z,58.57
2019-02-25T20:33:57.365Z,57.90
2019-02-25T20:36:30.635Z,56.43
2019-02-25T20:39:04.347Z,58.23
2019-02-25T20:41:36.597Z,60.33
2019-02-25T20:44:08.863Z,57.10
2019-02-25T20:46:40.789Z,57.70
2019-02-25T20:49:16.124Z,58.20
2019-02-25T20:51:47.947Z,60.63
2019-02-25T20:54:21.103Z,59.10
2019-02-25T20:56:55.369Z,61.90
2019-02-25T20:59:28.245Z,59.67
2019-02-25T21:02:00.949Z,59.93
2019-02-25T21:04:36.504Z,64.97
2019-02-25T21:07:08.317Z,59.03
2019-02-25T21:09:42.161Z,63.47
2019-02-25T21:12:15.678Z,59.40
2019-02-25T21:14:47.740Z,59.07
2019-02-25T21:17:19.748Z,61.77
2019-02-25T21:19:51.874Z,60.93
2019-02-25T21:22:27.000Z,60.27
2019-02-25T21:24:58.485Z,57.53
2019-02-25T21:27:32.511Z,56.80
2019-02-25T21:30:20.354Z,57.20
2019-02-25T21:32:54.125Z,56.43
2019-02-25T21:35:28.241Z,52.57
2019-02-25T21:37:59.627Z,54.23
2019-02-25T21:40:32.534Z,54.13
2019-02-25T21:43:04.551Z,54.00
2019-02-25T21:45:36.530Z,53.13
2019-02-25T21:48:08.496Z,54.57
2019-02-25T21:50:42.601Z,51.47
2019-02-25T21:53:16.589Z,51.50
2019-02-25T21:55:51.121Z,52.30
2019-02-25T21:58:25.229Z,51.87
2019-02-25T22:00:56.985Z,51.87
2019-02-25T22:03:28.938Z,52.77
2019-02-25T22:06:02.620Z,50.83
2019-02-25T22:08:36.066Z,51.97
2019-02-25T22:11:13.043Z,49.77
2019-02-25T22:13:42.196Z,51.90
2019-02-25T22:16:14.218Z,50.27
2019-02-25T22:18:48.315Z,50.93
2019-02-25T22:21:21.184Z,52.57
2019-02-25T22:23:56.156Z,49.47
2019-02-25T22:26:29.116Z,50.10
2019-02-25T22:29:01.950Z,50.77
2019-02-25T22:31:35.376Z,50.73
2019-02-25T22:34:08.861Z,51.47
2019-02-25T22:36:43.771Z,49.27
2019-02-25T22:39:15.064Z,50.40
2019-02-25T22:41:48.767Z,49.27
2019-02-25T22:44:22.607Z,48.87
2019-02-25T22:46:55.168Z,48.37
2019-02-25T22:49:28.822Z,47.10
2019-02-25T22:52:02.804Z,46.07
2019-02-25T22:54:37.054Z,45.83
2019-02-25T22:57:08.098Z,44.33
2019-02-25T22:59:40.066Z,45.50
2019-02-25T23:02:12.430Z,43.40
2019-02-25T23:04:45.177Z,45.03
2019-02-25T23:07:20.050Z,43.53
2019-02-25T23:09:52.310Z,44.67
2019-02-25T23:12:27.211Z,46.07
2019-02-25T23:15:00.947Z,44.50
2019-02-25T23:17:35.189Z,44.67
2019-02-25T23:20:11.189Z,43.73
2019-02-25T23:22:43.200Z,43.20
2019-02-25T23:25:15.159Z,43.50
2019-02-25T23:27:47.102Z,43.60
2019-02-25T23:30:21.357Z,41.57
2019-02-25T23:32:54.554Z,40.20
2019-02-25T23:35:27.015Z,41.17
2019-02-25T23:38:00.854Z,39.80
2019-02-25T23:40:35.366Z,39.37
2019-02-25T23:43:07.493Z,40.80
2019-02-25T23:45:42.128Z,42.50
2019-02-25T23:48:14.290Z,39.37
2019-02-25T23:50:47.956Z,40.07
2019-02-25T23:53:19.887Z,39.40
2019-02-25T23:55:53.849Z,42.17
2019-02-25T23:58:25.896Z,40.70
